createdAt,value
2018-12-23T00:04:00.305Z,75.19
2018-12-23T00:09:04.646Z,74.96
2018-12-23T00:14:08.169Z,74.38
2018-12-23T00:19:11.477Z,74.64
2018-12-23T00:24:14.869Z,75.58
2018-12-23T00:29:18.151Z,75.10
2018-12-23T00:34:21.531Z,74.82
2018-12-23T00:39:25.332Z,75.55
2018-12-23T00:44:28.781Z,76.60
2018-12-23T00:49:32.030Z,76.05
2018-12-23T00:54:35.315Z,75.49
2018-12-23T00:59:38.583Z,75.50
2018-12-23T01:04:41.860Z,76.23
2018-12-23T01:09:45.092Z,76.11
2018-12-23T01:14:48.324Z,77.19
2018-12-23T01:19:51.573Z,76.93
2018-12-23T01:24:54.810Z,76.88
2018-12-23T01:29:57.998Z,76.48
2018-12-23T01:35:01.163Z,76.54
2018-12-23T01:40:05.552Z,76.07
2018-12-23T01:45:08.929Z,75.55
2018-12-23T01:50:12.277Z,76.03
2018-12-23T01:55:15.613Z,75.95
2018-12-23T02:00:19.114Z,75.95
2018-12-23T02:05:22.301Z,75.87
2018-12-23T02:10:25.555Z,76.39
2018-12-23T02:15:28.864Z,76.97
2018-12-23T02:20:32.017Z,77.02
2018-12-23T02:25:35.436Z,77.21
2018-12-23T02:30:38.686Z,77.02
2018-12-23T02:35:41.902Z,76.01
2018-12-23T02:40:45.179Z,75.59
2018-12-23T02:45:48.565Z,76.15
2018-12-23T02:50:52.008Z,76.75
2018-12-23T02:55:55.333Z,76.22
2018-12-23T03:00:58.547Z,76.96
2018-12-23T03:06:06.157Z,77.63
2018-12-23T03:11:06.966Z,77.53
2018-12-23T03:16:10.226Z,78.24
2018-12-23T03:21:13.518Z,78.61
2018-12-23T03:26:16.970Z,78.83
2018-12-23T03:31:20.141Z,79.46
2018-12-23T03:36:23.316Z,79.26
2018-12-23T03:41:26.734Z,79.71
2018-12-23T03:46:30.113Z,80.61
2018-12-23T03:51:33.486Z,80.34
2018-12-23T03:56:36.826Z,81.14
2018-12-23T04:01:40.041Z,80.89
2018-12-23T04:06:43.215Z,81.95
2018-12-23T04:11:46.454Z,81.93
2018-12-23T04:16:49.884Z,81.75
2018-12-23T04:21:53.066Z,81.69
2018-12-23T04:26:56.232Z,81.47
2018-12-23T04:31:59.468Z,82.74
2018-12-23T04:37:02.825Z,82.59
2018-12-23T04:42:06.105Z,82.76
2018-12-23T04:47:09.334Z,82.86
2018-12-23T04:52:12.503Z,82.23
2018-12-23T04:57:15.705Z,82.67
2018-12-23T05:02:18.889Z,84.31
2018-12-23T05:07:22.168Z,84.38
2018-12-23T05:12:25.349Z,83.75
2018-12-23T05:17:28.817Z,83.28
2018-12-23T05:22:32.321Z,83.58
2018-12-23T05:27:35.542Z,83.49
2018-12-23T05:32:38.761Z,83.38
2018-12-23T05:37:41.977Z,83.47
2018-12-23T05:42:45.155Z,84.04
2018-12-23T05:47:48.416Z,84.17
2018-12-23T05:52:51.594Z,84.68
2018-12-23T05:57:55.321Z,84.47
2018-12-23T06:02:58.504Z,84.38
2018-12-23T06:08:01.745Z,84.56
2018-12-23T06:13:05.093Z,83.97
2018-12-23T06:18:08.257Z,83.87
2018-12-23T06:23:11.489Z,83.48
2018-12-23T06:28:14.697Z,82.54
2018-12-23T06:33:17.873Z,82.38
2018-12-23T06:38:21.269Z,81.85
2018-12-23T06:43:24.524Z,81.47
2018-12-23T06:48:27.813Z,81.57
2018-12-23T06:53:31.225Z,80.91
2018-12-23T06:58:34.521Z,80.79
2018-12-23T07:03:37.775Z,80.56
2018-12-23T07:08:41.116Z,80.62
2018-12-23T07:13:44.489Z,80.23
2018-12-23T07:18:47.836Z,79.93
2018-12-23T07:23:51.189Z,80.06
2018-12-23T07:28:54.500Z,79.88
2018-12-23T07:33:57.661Z,79.53
2018-12-23T07:39:01.045Z,78.68
2018-12-23T07:44:04.479Z,78.49
2018-12-23T07:49:07.777Z,78.45
2018-12-23T07:54:11.143Z,77.71
2018-12-23T07:59:14.502Z,77.49
2018-12-23T08:04:17.799Z,78.68
2018-12-23T08:09:21.115Z,77.22
2018-12-23T08:14:24.464Z,77.06
2018-12-23T08:19:27.689Z,76.29
2018-12-23T08:24:30.846Z,76.42
2018-12-23T08:29:34.077Z,76.36
2018-12-23T08:34:37.244Z,76.34
2018-12-23T08:39:40.466Z,76.38
2018-12-23T08:44:43.621Z,75.79
2018-12-23T08:49:46.791Z,75.85
2018-12-23T08:54:49.934Z,75.92
2018-12-23T08:59:53.109Z,76.08
2018-12-23T09:04:56.337Z,75.72
2018-12-23T09:09:59.508Z,75.25
2018-12-23T09:15:02.800Z,75.12
2018-12-23T09:20:06.157Z,75.56
2018-12-23T09:25:09.477Z,75.59
2018-12-23T09:30:12.645Z,75.18
2018-12-23T09:35:15.955Z,75.46
2018-12-23T09:40:19.352Z,75.05
2018-12-23T09:45:22.558Z,74.96
2018-12-23T09:50:26.482Z,74.91
2018-12-23T09:55:29.756Z,74.38
2018-12-23T10:00:32.993Z,74.13
2018-12-23T10:05:36.314Z,74.44
2018-12-23T10:10:39.672Z,74.37
2018-12-23T10:15:43.044Z,73.77
2018-12-23T10:20:46.261Z,74.88
2018-12-23T10:25:52.734Z,73.08
2018-12-23T10:30:56.072Z,73.42
2018-12-23T10:35:59.292Z,73.84
2018-12-23T10:41:02.649Z,73.23
2018-12-23T10:46:05.862Z,73.39
2018-12-23T10:51:09.119Z,73.42
2018-12-23T10:56:12.344Z,72.77
2018-12-23T11:01:15.510Z,73.09
2018-12-23T11:06:18.764Z,73.74
2018-12-23T11:11:21.936Z,73.53
2018-12-23T11:16:25.166Z,73.14
2018-12-23T11:21:28.551Z,73.49
2018-12-23T11:26:31.752Z,73.51
2018-12-23T11:31:34.976Z,73.97
2018-12-23T11:36:38.226Z,72.85
2018-12-23T11:41:41.459Z,72.40
2018-12-23T11:46:44.753Z,71.53
2018-12-23T11:51:48.013Z,72.98
2018-12-23T11:56:51.281Z,72.23
2018-12-23T12:01:54.509Z,71.99
2018-12-23T12:06:57.713Z,71.93
2018-12-23T12:12:00.865Z,71.29
2018-12-23T12:17:04.140Z,70.89
2018-12-23T12:22:07.364Z,72.27
2018-12-23T12:27:10.505Z,72.27
2018-12-23T12:32:13.757Z,73.02
2018-12-23T12:37:16.931Z,71.95
2018-12-23T12:42:20.099Z,73.08
2018-12-23T12:47:23.281Z,73.14
2018-12-23T12:52:26.627Z,72.72
2018-12-23T12:57:29.900Z,72.99
2018-12-23T13:02:33.071Z,73.35
2018-12-23T13:07:36.274Z,73.58
2018-12-23T13:12:39.466Z,73.68
2018-12-23T13:17:42.648Z,74.14
2018-12-23T13:22:47.071Z,74.10
2018-12-23T13:27:50.282Z,74.03
2018-12-23T13:32:53.538Z,73.10
2018-12-23T13:37:57.164Z,74.21
2018-12-23T13:43:15.238Z,74.42
2018-12-23T13:49:31.280Z,74.72
2018-12-23T13:55:51.715Z,75.28
2018-12-23T14:01:32.267Z,75.84
2018-12-23T14:07:17.040Z,75.84
2018-12-23T14:12:21.410Z,76.88
2018-12-23T14:17:27.723Z,77.09
2018-12-23T14:22:31.846Z,77.49
2018-12-23T14:27:36.044Z,78.42
2018-12-23T14:32:40.346Z,78.53
2018-12-23T14:44:15.877Z,78.99
2018-12-23T14:49:20.028Z,78.25
2018-12-23T14:54:25.926Z,79.07
2018-12-23T14:59:30.202Z,79.44
2018-12-23T15:04:34.374Z,78.97
2018-12-23T15:09:38.650Z,79.58
2018-12-23T15:14:42.804Z,79.05
2018-12-23T15:19:46.983Z,78.16
2018-12-23T15:24:51.152Z,77.07
2018-12-23T15:29:55.274Z,77.06
2018-12-23T15:34:59.398Z,77.57
2018-12-23T15:40:03.680Z,77.41
2018-12-23T15:45:07.906Z,77.69
2018-12-23T15:50:12.069Z,78.07
2018-12-23T15:55:14.891Z,78.30
2018-12-23T16:00:19.126Z,78.52
2018-12-23T16:05:23.273Z,78.28
2018-12-23T16:10:27.431Z,78.17
2018-12-23T16:15:31.570Z,78.02
2018-12-23T16:20:36.679Z,78.94
2018-12-23T16:25:40.898Z,78.79
2018-12-23T16:30:45.032Z,79.52
2018-12-23T16:35:49.163Z,79.39
2018-12-23T16:40:53.301Z,79.70
2018-12-23T16:45:57.472Z,79.57
2018-12-23T16:51:01.620Z,79.42
2018-12-23T16:56:05.790Z,79.50
2018-12-23T17:01:10.031Z,79.22
2018-12-23T17:06:14.215Z,79.60
2018-12-23T17:11:18.455Z,79.64
2018-12-23T17:16:22.622Z,79.67
2018-12-23T17:21:26.789Z,80.50
2018-12-23T17:26:30.943Z,80.58
2018-12-23T17:31:35.119Z,79.29
2018-12-23T17:36:39.375Z,78.68
2018-12-23T17:41:43.580Z,78.25
2018-12-23T17:46:47.870Z,77.29
2018-12-23T17:51:52.041Z,77.15
2018-12-23T17:56:56.249Z,77.04
2018-12-23T18:02:03.017Z,76.73
2018-12-23T18:07:07.233Z,76.75
2018-12-23T18:12:11.416Z,77.68
2018-12-23T18:17:15.614Z,77.30
2018-12-23T18:22:20.465Z,76.81
2018-12-23T18:27:24.771Z,77.84
2018-12-23T18:32:29.055Z,78.16
2018-12-23T18:37:33.194Z,78.37
2018-12-23T18:42:37.339Z,78.12
2018-12-23T18:47:41.578Z,78.57
2018-12-23T18:52:45.755Z,78.44
2018-12-23T18:57:50.395Z,79.08
2018-12-23T19:02:56.982Z,78.54
2018-12-23T19:08:10.008Z,79.03
2018-12-23T19:13:59.537Z,79.33
2018-12-23T19:19:46.383Z,79.18
2018-12-23T19:25:40.517Z,79.44
2018-12-23T19:31:03.636Z,80.00
2018-12-23T19:36:46.141Z,79.65
2018-12-23T19:42:40.780Z,79.36
2018-12-23T19:48:40.505Z,79.62
2018-12-23T19:54:24.821Z,79.02
2018-12-23T20:00:05.559Z,78.96
2018-12-23T20:06:05.373Z,79.02
2018-12-23T20:12:02.781Z,78.99
2018-12-23T20:17:50.270Z,78.96
2018-12-23T20:23:20.687Z,78.56
2018-12-23T20:29:05.866Z,79.01
2018-12-23T20:34:54.744Z,78.75
2018-12-23T20:41:07.934Z,78.71
2018-12-23T20:46:40.909Z,78.97
2018-12-23T20:52:50.612Z,79.22
2018-12-23T20:58:45.232Z,79.16
2018-12-23T21:04:22.898Z,78.38
2018-12-23T21:10:32.996Z,78.31
2018-12-23T21:16:15.900Z,78.64
2018-12-23T21:21:55.968Z,78.33
2018-12-23T21:27:56.214Z,78.25
2018-12-23T21:33:36.599Z,78.20
2018-12-23T21:39:38.005Z,79.04
2018-12-23T21:45:13.709Z,78.41
2018-12-23T21:50:33.533Z,78.28
2018-12-23T21:56:30.219Z,78.31
2018-12-23T22:02:10.527Z,78.14
2018-12-23T22:08:02.058Z,77.96
2018-12-23T22:13:27.565Z,78.21
2018-12-23T22:18:34.239Z,78.94
2018-12-23T22:23:38.458Z,78.86
2018-12-23T22:28:42.624Z,76.96
2018-12-23T22:33:46.818Z,76.84
2018-12-23T22:38:51.001Z,76.37
2018-12-23T22:43:55.263Z,76.11
2018-12-23T22:48:59.473Z,77.10
2018-12-23T22:54:03.669Z,77.61
2018-12-23T22:59:08.229Z,77.53
2018-12-23T23:04:12.540Z,76.82
2018-12-23T23:09:16.837Z,76.17
2018-12-23T23:14:23.012Z,76.93
2018-12-23T23:19:30.165Z,77.12
2018-12-23T23:24:39.001Z,76.61
2018-12-23T23:29:43.358Z,76.14
2018-12-23T23:34:56.490Z,77.06
2018-12-23T23:40:02.148Z,78.34
2018-12-23T23:45:06.590Z,79.02
2018-12-23T23:50:10.921Z,78.82
2018-12-23T23:55:15.158Z,79.45
